Time;durP1;ratioP1;P1;durP2;ratioP2;P2;SDS_P1;SDS_P2;PMS_P1;PMS_P2;Temp;Humidity;BMP_temperature;BMP_pressure;BME280_temperature;BME280_humidity;BME280_pressure;Samples;Min_cycle;Max_cycle;Signal;HPM_P1;HPM_P2
2022/05/06 07:29:24;;;;;;;18.40;8.77;;;12.80;90.80;;;;;;5055929;28;20954;-59
2022/05/06 07:31:50;;;;;;;18.50;8.60;;;12.20;91.70;;;;;;5053391;28;20037;-60
2022/05/06 07:34:16;;;;;;;13.82;8.30;;;12.10;91.90;;;;;;5049584;28;20056;-61
2022/05/06 07:36:42;;;;;;;16.42;8.48;;;12.20;91.90;;;;;;5045428;28;20025;-60
2022/05/06 07:39:12;;;;;;;13.93;8.27;;;12.30;92.00;;;;;;5043040;28;20127;-60
2022/05/06 07:41:38;;;;;;;21.38;9.57;;;12.30;91.80;;;;;;5052280;28;20068;-61
2022/05/06 07:44:04;;;;;;;17.70;9.45;;;12.40;91.90;;;;;;5036873;28;20368;-60
2022/05/06 07:46:31;;;;;;;17.63;8.45;;;12.50;91.80;;;;;;5030304;28;20036;-59
2022/05/06 07:48:57;;;;;;;17.73;9.90;;;12.60;91.80;;;;;;5037543;28;20037;-59
2022/05/06 07:51:23;;;;;;;16.40;9.40;;;12.70;91.80;;;;;;5049530;28;20090;-59
2022/05/06 07:53:51;;;;;;;16.35;8.55;;;12.80;91.80;;;;;;5050073;28;20033;-59
2022/05/06 07:56:18;;;;;;;18.05;9.13;;;12.90;91.70;;;;;;5045180;28;20029;-59
2022/05/06 07:58:44;;;;;;;18.60;8.77;;;13.10;91.50;;;;;;5043292;28;20033;-59
2022/05/06 08:01:13;;;;;;;14.40;8.65;;;13.20;91.30;;;;;;5047521;28;20086;-60
2022/05/06 08:06:24;;;;;;;16.23;9.50;;;13.40;90.90;;;;;;5046737;28;20538;-60
2022/05/06 08:08:49;;;;;;;22.77;10.05;;;13.50;90.60;;;;;;5045521;28;20069;-60
2022/05/06 08:11:16;;;;;;;20.55;9.00;;;13.70;90.60;;;;;;5046491;28;20021;-61
2022/05/06 08:13:42;;;;;;;15.77;8.95;;;13.70;90.30;;;;;;5043813;28;20178;-61
2022/05/06 08:16:09;;;;;;;18.50;8.52;;;13.90;90.20;;;;;;5045760;28;20521;-60
2022/05/06 08:18:35;;;;;;;19.70;8.82;;;14.00;90.30;;;;;;5046822;28;20033;-59
2022/05/06 08:21:01;;;;;;;15.95;9.18;;;14.10;90.20;;;;;;5047113;28;20038;-60
2022/05/06 08:23:26;;;;;;;21.63;8.57;;;14.30;89.30;;;;;;5042764;28;20041;-61
2022/05/06 08:25:53;;;;;;;18.58;9.93;;;14.40;88.50;;;;;;5045853;28;20029;-60
2022/05/06 08:28:20;;;;;;;16.33;9.15;;;14.60;87.30;;;;;;5044255;28;20103;-60
2022/05/06 08:30:49;;;;;;;17.65;8.73;;;14.80;86.30;;;;;;5040764;28;20127;-59
2022/05/06 08:33:16;;;;;;;18.52;9.18;;;15.00;85.70;;;;;;5041107;28;20030;-60
2022/05/06 08:35:42;;;;;;;18.10;9.60;;;15.10;86.00;;;;;;5053670;28;20026;-60
2022/05/06 08:38:11;;;;;;;17.35;8.88;;;15.20;86.40;;;;;;5042237;28;20060;-60
2022/05/06 08:40:37;;;;;;;16.15;9.85;;;15.40;84.70;;;;;;5040865;28;20029;-60
2022/05/06 08:43:04;;;;;;;28.90;10.35;;;15.60;84.20;;;;;;5031996;28;20121;-60
2022/05/06 08:51:02;;;;;;;20.77;9.10;;;15.90;82.90;;;;;;5033126;28;20036;-59
2022/05/06 08:53:37;;;;;;;20.85;11.38;;;16.10;81.70;;;;;;5033466;28;20045;-59
2022/05/06 08:56:03;;;;;;;17.33;9.65;;;16.30;80.60;;;;;;5032124;28;20166;-61
2022/05/06 08:58:34;;;;;;;25.08;12.05;;;16.50;79.40;;;;;;5029353;28;20078;-61
2022/05/06 09:01:04;;;;;;;16.33;9.40;;;16.60;79.10;;;;;;5029193;28;20060;-60
2022/05/06 09:03:30;;;;;;;17.40;9.88;;;16.70;80.30;;;;;;5031908;28;20040;-60
2022/05/06 09:05:59;;;;;;;19.27;8.85;;;16.90;80.10;;;;;;5039872;28;20029;-60
2022/05/06 09:08:40;;;;;;;15.43;7.72;;;17.00;76.60;;;;;;5044155;28;20029;-60
2022/05/06 09:11:09;;;;;;;15.35;6.40;;;17.20;72.50;;;;;;5028292;28;20026;-59
2022/05/06 09:13:36;;;;;;;11.43;5.78;;;17.20;69.90;;;;;;5031412;28;20461;-59
2022/05/06 09:19:21;;;;;;;14.68;5.45;;;17.40;68.20;;;;;;5034137;28;20454;-60
2022/05/06 09:22:09;;;;;;;16.08;5.53;;;17.50;68.30;;;;;;5040829;28;20047;-60
2022/05/06 09:24:37;;;;;;;11.32;5.75;;;17.60;67.50;;;;;;5028315;28;20037;-60
2022/05/06 09:27:08;;;;;;;12.43;6.50;;;17.80;66.70;;;;;;5037430;28;20033;-60
2022/05/06 09:29:35;;;;;;;13.05;5.68;;;17.80;66.70;;;;;;5037181;28;20039;-60
2022/05/06 09:32:19;;;;;;;12.05;5.40;;;17.90;67.20;;;;;;5034934;28;20030;-61
2022/05/06 09:34:56;;;;;;;11.02;5.00;;;18.00;64.90;;;;;;5027641;28;20078;-60
2022/05/06 09:37:46;;;;;;;12.02;5.20;;;18.10;62.90;;;;;;5032112;28;20033;-60
2022/05/06 09:40:19;;;;;;;9.73;5.10;;;18.20;63.20;;;;;;5035235;28;20047;-61
2022/05/06 09:42:54;;;;;;;16.40;6.72;;;18.30;62.40;;;;;;5032567;28;20035;-60
2022/05/06 09:45:28;;;;;;;13.50;5.32;;;18.20;62.40;;;;;;5037910;28;20025;-60
2022/05/06 09:47:58;;;;;;;11.88;4.88;;;18.20;61.60;;;;;;5032094;28;20064;-59
2022/05/06 09:50:50;;;;;;;12.00;4.70;;;18.00;60.20;;;;;;5047111;28;20480;-60
2022/05/06 09:53:18;;;;;;;10.15;5.50;;;18.00;62.60;;;;;;5033429;28;20081;-60
2022/05/06 09:55:46;;;;;;;6.65;3.65;;;18.30;63.00;;;;;;5017945;28;20036;-60
2022/05/06 09:58:13;;;;;;;9.00;3.47;;;18.40;59.00;;;;;;5038715;28;20052;-61
2022/05/06 10:00:39;;;;;;;9.75;2.90;;;18.60;57.80;;;;;;5044194;28;20041;-60
2022/05/06 10:03:06;;;;;;;8.02;3.67;;;18.60;55.90;;;;;;5026866;28;20061;-60
2022/05/06 10:05:34;;;;;;;5.28;2.95;;;18.70;57.10;;;;;;5038319;28;20282;-60
2022/05/06 10:08:11;;;;;;;9.07;3.72;;;18.80;55.40;;;;;;5029262;28;20069;-60
2022/05/06 10:10:40;;;;;;;5.30;2.60;;;18.90;53.70;;;;;;5041124;28;20033;-60
2022/05/06 10:13:22;;;;;;;4.68;1.88;;;18.90;53.40;;;;;;5032942;28;20040;-61
2022/05/06 10:15:49;;;;;;;6.05;2.30;;;18.90;51.90;;;;;;5036842;28;20124;-60
2022/05/06 10:18:38;;;;;;;7.03;2.70;;;19.10;51.60;;;;;;5031680;28;20478;-60
2022/05/06 10:21:04;;;;;;;6.43;2.47;;;19.10;50.90;;;;;;5030177;28;20037;-60
2022/05/06 10:23:52;;;;;;;10.63;2.25;;;19.00;50.40;;;;;;5030241;28;20054;-59
2022/05/06 10:26:37;;;;;;;7.22;2.15;;;19.00;49.40;;;;;;5037394;28;20102;-60
2022/05/06 10:34:36;;;;;;;6.47;2.40;;;19.00;48.60;;;;;;5029514;28;20044;-60
2022/05/06 10:37:13;;;;;;;7.82;2.80;;;19.30;50.10;;;;;;5042686;28;20021;-60
2022/05/06 10:39:39;;;;;;;9.73;2.65;;;19.40;51.50;;;;;;5018378;28;20029;-59
2022/05/06 10:42:06;;;;;;;5.35;3.03;;;19.30;50.70;;;;;;5024249;28;20033;-60
2022/05/06 10:44:38;;;;;;;6.97;3.05;;;19.30;51.60;;;;;;5028994;28;20025;-60
2022/05/06 10:47:24;;;;;;;10.13;3.30;;;19.30;51.40;;;;;;5033433;28;20068;-60
2022/05/06 10:49:51;;;;;;;7.13;3.85;;;19.50;52.30;;;;;;5030427;28;20035;-60
2022/05/06 10:52:24;;;;;;;9.25;3.40;;;19.50;51.70;;;;;;5035636;28;20087;-60
2022/05/06 10:54:55;;;;;;;6.93;3.15;;;19.60;51.90;;;;;;5025138;28;20041;-59
2022/05/06 10:57:23;;;;;;;6.65;3.47;;;19.50;50.80;;;;;;5035710;28;20028;-60
2022/05/06 10:59:56;;;;;;;7.45;3.72;;;19.50;51.60;;;;;;5038259;28;20384;-59
2022/05/06 11:02:33;;;;;;;5.63;3.30;;;19.70;52.00;;;;;;5033478;28;20087;-60
2022/05/06 11:05:05;;;;;;;4.50;2.78;;;20.20;50.70;;;;;;5035280;28;20439;-60
2022/05/06 11:07:32;;;;;;;11.52;3.30;;;20.40;50.30;;;;;;5028106;28;20495;-60
2022/05/06 11:09:58;;;;;;;6.68;2.60;;;20.90;49.60;;;;;;5036027;28;20052;-59
2022/05/06 11:12:30;;;;;;;7.90;3.35;;;21.30;47.00;;;;;;5030249;28;20429;-59
2022/05/06 11:14:57;;;;;;;7.10;3.35;;;21.80;46.50;;;;;;5023828;28;20032;-60
2022/05/06 11:17:24;;;;;;;5.93;2.75;;;21.60;46.30;;;;;;5031879;28;20040;-61
2022/05/06 11:19:50;;;;;;;5.38;2.42;;;21.80;45.60;;;;;;5039708;28;20029;-59
2022/05/06 11:22:16;;;;;;;9.45;2.63;;;21.90;42.80;;;;;;5037315;28;20034;-59
2022/05/06 11:24:43;;;;;;;4.95;2.10;;;21.80;42.80;;;;;;5031696;28;20029;-59
2022/05/06 11:27:17;;;;;;;5.68;2.20;;;22.10;42.40;;;;;;5042153;28;20029;-59
2022/05/06 11:29:50;;;;;;;3.45;1.83;;;21.80;42.40;;;;;;5043435;28;20035;-61
2022/05/06 11:32:16;;;;;;;4.53;1.88;;;21.70;42.10;;;;;;5038853;28;20021;-60
2022/05/06 11:35:01;;;;;;;4.72;1.90;;;21.50;42.40;;;;;;5028189;28;20367;-59
2022/05/06 11:37:29;;;;;;;6.55;2.47;;;21.80;41.90;;;;;;5033955;28;20049;-59
2022/05/06 11:42:40;;;;;;;4.95;2.78;;;21.80;42.20;;;;;;5033613;28;20092;-60
2022/05/06 11:48:13;;;;;;;5.80;1.88;;;21.40;43.90;;;;;;5043501;28;20064;-59
2022/05/06 11:50:41;;;;;;;3.47;1.85;;;21.70;39.90;;;;;;5025723;28;20049;-59
2022/05/06 11:53:09;;;;;;;4.10;2.20;;;21.60;39.40;;;;;;5037878;28;20535;-59
2022/05/06 11:55:37;;;;;;;4.05;1.90;;;22.20;38.90;;;;;;5035441;28;20039;-60
2022/05/06 11:58:07;;;;;;;5.88;2.33;;;22.10;37.90;;;;;;5033690;28;20021;-59
2022/05/06 12:00:33;;;;;;;9.65;2.20;;;22.00;38.80;;;;;;5016811;28;20100;-60
2022/05/06 12:03:07;;;;;;;3.90;2.30;;;22.30;38.40;;;;;;5028698;28;20552;-61
2022/05/06 12:05:34;;;;;;;9.80;2.97;;;22.80;38.80;;;;;;5027628;28;20050;-60
2022/05/06 12:08:00;;;;;;;4.15;2.30;;;23.00;38.90;;;;;;5031165;28;20116;-59
2022/05/06 12:10:27;;;;;;;11.18;3.53;;;23.10;36.90;;;;;;5027222;28;20025;-60
2022/05/06 12:12:57;;;;;;;8.23;2.70;;;22.60;37.40;;;;;;5038088;28;20029;-60
2022/05/06 12:15:38;;;;;;;7.25;3.60;;;22.90;38.10;;;;;;5030714;28;20067;-60
2022/05/06 12:18:04;;;;;;;4.93;4.07;;;23.50;38.80;;;;;;5033160;28;20039;-59
2022/05/06 12:20:35;;;;;;;6.40;3.88;;;23.80;38.60;;;;;;5032813;28;20075;-59
2022/05/06 12:23:01;;;;;;;8.33;3.80;;;23.60;38.80;;;;;;5032691;28;20026;-59
2022/05/06 12:25:27;;;;;;;7.38;4.65;;;22.90;39.90;;;;;;5037380;28;20435;-59
2022/05/06 12:28:15;;;;;;;6.22;4.30;;;23.00;41.20;;;;;;5041375;28;20403;-59
2022/05/06 12:30:42;;;;;;;5.35;4.13;;;22.30;42.70;;;;;;5042734;28;20025;-60
2022/05/06 12:33:17;;;;;;;8.10;5.15;;;22.50;41.50;;;;;;5036115;28;20137;-58
2022/05/06 12:35:57;;;;;;;8.63;5.05;;;23.10;42.50;;;;;;5034741;28;20032;-59
2022/05/06 12:38:47;;;;;;;7.88;4.95;;;22.90;42.00;;;;;;5039827;28;20037;-60
2022/05/06 12:41:19;;;;;;;12.07;6.28;;;22.80;43.00;;;;;;5020833;28;20021;-58
2022/05/06 12:43:46;;;;;;;11.13;5.65;;;22.40;45.10;;;;;;5025243;28;20049;-59
2022/05/06 12:46:23;;;;;;;8.77;4.72;;;22.70;44.50;;;;;;5024556;28;20472;-60
2022/05/06 12:51:33;;;;;;;7.07;4.90;;;22.60;44.20;;;;;;5030849;28;20568;-59
2022/05/06 12:53:58;;;;;;;6.50;3.78;;;23.00;44.40;;;;;;5028504;28;20041;-60
2022/05/06 12:56:24;;;;;;;6.47;4.13;;;23.10;43.60;;;;;;5043051;28;20109;-60
2022/05/06 12:58:49;;;;;;;4.88;3.60;;;23.50;43.70;;;;;;5038791;28;20033;-60
2022/05/06 13:01:15;;;;;;;7.75;4.32;;;23.30;43.20;;;;;;5039979;28;20044;-61
2022/05/06 13:03:42;;;;;;;5.10;3.70;;;24.00;43.30;;;;;;5043236;28;20060;-60
2022/05/06 13:06:08;;;;;;;10.50;4.35;;;23.60;41.60;;;;;;5036935;28;20393;-59
2022/05/06 13:08:34;;;;;;;7.72;4.68;;;23.30;42.60;;;;;;5031643;28;20048;-59
2022/05/06 13:11:00;;;;;;;8.20;4.50;;;23.20;43.20;;;;;;5049088;28;20026;-59
2022/05/06 13:13:26;;;;;;;5.97;4.63;;;23.40;43.40;;;;;;5037210;28;20029;-59
2022/05/06 13:15:51;;;;;;;8.50;4.32;;;23.10;43.50;;;;;;5033204;28;20052;-58
2022/05/06 13:18:17;;;;;;;9.95;4.28;;;23.30;42.60;;;;;;5033931;28;20037;-59
2022/05/06 13:20:45;;;;;;;10.40;5.18;;;23.10;42.00;;;;;;5039213;28;20028;-58
2022/05/06 13:23:10;;;;;;;7.65;3.78;;;22.10;44.10;;;;;;5043708;28;20392;-59
2022/05/06 13:25:36;;;;;;;7.22;4.18;;;22.10;43.90;;;;;;5042881;28;20524;-60
2022/05/06 13:28:02;;;;;;;5.63;3.72;;;22.70;44.00;;;;;;5036646;28;20148;-59
2022/05/06 13:30:28;;;;;;;9.48;4.75;;;22.70;44.30;;;;;;5038899;28;20162;-61
2022/05/06 13:32:53;;;;;;;12.52;4.97;;;23.00;43.60;;;;;;5038717;28;20035;-59
2022/05/06 13:35:19;;;;;;;8.38;4.65;;;23.80;42.70;;;;;;5033096;28;20041;-60
2022/05/06 13:37:45;;;;;;;6.75;4.18;;;24.40;41.30;;;;;;5029843;28;20034;-60
2022/05/06 13:40:11;;;;;;;8.85;4.18;;;24.60;40.40;;;;;;5039495;28;20033;-60
2022/05/06 13:42:37;;;;;;;8.18;4.20;;;24.80;40.00;;;;;;5034108;28;20494;-61
2022/05/06 13:45:03;;;;;;;7.93;4.35;;;25.20;39.80;;;;;;5039946;28;20481;-60
2022/05/06 13:47:30;;;;;;;8.10;4.72;;;24.80;38.70;;;;;;5040076;28;20068;-60
2022/05/06 13:49:56;;;;;;;12.43;4.85;;;24.20;40.40;;;;;;5038189;28;20486;-59
2022/05/06 13:52:22;;;;;;;14.20;5.80;;;23.90;41.60;;;;;;5038934;28;20064;-60
2022/05/06 13:54:48;;;;;;;9.63;4.68;;;23.70;42.00;;;;;;5040289;28;20043;-59
2022/05/06 13:59:58;;;;;;;9.82;4.10;;;22.80;43.80;;;;;;5041369;28;20047;-59
2022/05/06 14:02:24;;;;;;;8.88;4.18;;;23.00;44.30;;;;;;5034760;28;20029;-60
2022/05/06 14:04:50;;;;;;;7.20;4.05;;;23.60;42.40;;;;;;5031896;28;20036;-60
2022/05/06 14:07:15;;;;;;;8.90;4.45;;;23.90;42.10;;;;;;5036922;28;20025;-59
2022/05/06 14:09:41;;;;;;;9.00;4.97;;;23.70;42.60;;;;;;5031166;28;20059;-60
2022/05/06 14:12:07;;;;;;;7.70;4.80;;;24.00;42.80;;;;;;5037946;28;20034;-59
2022/05/06 14:14:33;;;;;;;9.23;5.57;;;23.90;42.90;;;;;;5031442;28;20369;-60
2022/05/06 14:16:59;;;;;;;9.70;5.40;;;23.70;44.00;;;;;;5041762;28;20029;-59
2022/05/06 14:19:24;;;;;;;13.30;6.43;;;24.20;43.30;;;;;;5038193;28;20029;-60
2022/05/06 14:21:50;;;;;;;9.60;6.60;;;24.40;42.10;;;;;;5032797;28;20029;-60
2022/05/06 14:24:17;;;;;;;13.50;5.80;;;24.10;42.70;;;;;;5039640;28;20025;-59
2022/05/06 14:26:44;;;;;;;10.85;5.90;;;22.70;44.50;;;;;;5026403;28;20457;-61
2022/05/06 14:29:11;;;;;;;10.02;6.18;;;23.50;44.90;;;;;;5031731;28;20049;-60
2022/05/06 14:31:36;;;;;;;10.50;5.53;;;24.30;43.60;;;;;;5037197;28;20497;-60
2022/05/06 14:34:02;;;;;;;12.32;6.38;;;24.30;43.30;;;;;;5018533;28;20079;-60
2022/05/06 14:36:28;;;;;;;11.75;6.13;;;24.30;43.50;;;;;;5027659;28;20032;-58
2022/05/06 14:38:53;;;;;;;10.35;5.65;;;23.80;43.40;;;;;;5028371;28;20035;-59
2022/05/06 14:41:21;;;;;;;11.05;5.40;;;23.40;44.60;;;;;;5036774;28;20369;-59
2022/05/06 14:43:46;;;;;;;10.90;5.68;;;24.00;43.80;;;;;;5027349;28;20480;-58
2022/05/06 14:46:12;;;;;;;9.95;5.72;;;23.40;44.20;;;;;;5032739;28;20033;-59
2022/05/06 14:48:38;;;;;;;11.55;5.22;;;23.40;44.60;;;;;;5025510;28;20517;-59
2022/05/06 14:51:03;;;;;;;16.30;5.82;;;23.50;44.30;;;;;;5015847;28;20025;-59
2022/05/06 14:53:30;;;;;;;11.40;5.63;;;23.40;44.70;;;;;;5043096;28;20095;-59
2022/05/06 14:55:56;;;;;;;11.40;5.20;;;23.10;44.30;;;;;;5047734;28;20075;-58
2022/05/06 14:58:21;;;;;;;12.68;5.70;;;24.00;44.00;;;;;;5037770;28;20033;-58
2022/05/06 15:00:47;;;;;;;12.90;6.07;;;24.00;43.80;;;;;;5030691;28;20108;-60
2022/05/06 15:03:13;;;;;;;11.57;5.63;;;24.00;43.00;;;;;;5043627;28;20044;-59
2022/05/06 15:05:38;;;;;;;11.57;5.45;;;24.10;43.40;;;;;;5043220;28;20025;-60
2022/05/06 15:08:04;;;;;;;13.60;6.97;;;24.10;42.80;;;;;;5035030;28;20048;-59
2022/05/06 15:10:31;;;;;;;13.95;7.07;;;24.10;43.20;;;;;;5037649;28;20519;-58
2022/05/06 15:12:57;;;;;;;16.50;6.82;;;23.60;43.60;;;;;;5043342;28;20034;-59
2022/05/06 15:15:23;;;;;;;12.52;6.47;;;23.00;45.00;;;;;;5035966;28;20415;-59
2022/05/06 15:17:49;;;;;;;13.88;5.43;;;22.70;45.70;;;;;;5036276;28;20508;-58
2022/05/06 15:20:20;;;;;;;10.90;5.45;;;22.50;46.10;;;;;;5040540;28;20033;-60
2022/05/06 15:22:46;;;;;;;10.93;5.10;;;22.90;45.60;;;;;;5038524;28;20482;-59
2022/05/06 15:25:13;;;;;;;9.02;4.85;;;23.80;44.30;;;;;;5033613;28;20030;-59
2022/05/06 15:27:39;;;;;;;11.68;5.28;;;24.50;42.60;;;;;;5036419;28;20119;-58
2022/05/06 15:30:06;;;;;;;11.32;5.00;;;24.60;42.20;;;;;;5041905;28;20466;-60
2022/05/06 15:32:32;;;;;;;10.35;4.50;;;24.30;42.50;;;;;;5025169;28;20393;-59
2022/05/06 15:34:58;;;;;;;10.30;5.38;;;23.00;44.40;;;;;;5040418;28;20116;-60
2022/05/06 15:37:24;;;;;;;10.55;4.82;;;22.60;46.10;;;;;;5037363;28;20039;-60
2022/05/06 15:39:49;;;;;;;12.55;5.78;;;22.40;46.60;;;;;;5039619;28;20036;-60
2022/05/06 15:42:15;;;;;;;8.43;5.10;;;22.40;47.20;;;;;;5033955;28;20079;-59
2022/05/06 15:44:41;;;;;;;9.88;5.15;;;21.80;47.60;;;;;;5039719;28;20489;-59
2022/05/06 15:47:07;;;;;;;12.68;5.32;;;21.70;48.60;;;;;;5035365;28;20033;-59
2022/05/06 15:49:34;;;;;;;10.07;5.03;;;21.40;49.40;;;;;;5037511;28;20043;-59
2022/05/06 15:52:00;;;;;;;10.98;5.25;;;21.20;50.00;;;;;;5045834;28;20025;-59
2022/05/06 15:54:25;;;;;;;10.23;5.95;;;21.20;50.00;;;;;;5041693;28;20021;-60
2022/05/06 15:56:51;;;;;;;19.80;9.88;;;20.70;50.50;;;;;;5038250;28;20437;-59
2022/05/06 15:59:17;;;;;;;11.40;5.40;;;20.30;51.90;;;;;;5045833;28;20030;-59
2022/05/06 16:01:42;;;;;;;10.65;5.88;;;20.10;51.90;;;;;;5041689;28;20090;-60
2022/05/06 16:04:08;;;;;;;12.68;6.30;;;20.20;52.60;;;;;;5038983;28;20087;-59
2022/05/06 16:06:35;;;;;;;12.95;5.95;;;19.80;53.10;;;;;;5030447;28;20472;-59
2022/05/06 16:09:00;;;;;;;11.02;5.38;;;19.40;54.00;;;;;;5045638;28;20045;-59
2022/05/06 16:11:26;;;;;;;9.48;5.50;;;19.30;54.80;;;;;;5041708;28;20029;-59
2022/05/06 16:13:52;;;;;;;13.20;5.43;;;19.30;54.90;;;;;;5041029;28;20065;-61
2022/05/06 16:16:19;;;;;;;10.63;4.82;;;19.30;55.00;;;;;;5018249;28;20116;-60
2022/05/06 16:18:44;;;;;;;12.48;4.82;;;19.00;54.90;;;;;;5039162;28;20108;-58
2022/05/06 16:21:11;;;;;;;11.88;5.40;;;18.80;55.80;;;;;;5046870;28;20535;-58
2022/05/06 16:23:37;;;;;;;9.27;4.72;;;18.90;55.90;;;;;;5040794;28;20033;-59
2022/05/06 16:26:06;;;;;;;10.13;4.65;;;19.00;55.50;;;;;;5047915;28;20021;-59
2022/05/06 16:28:36;;;;;;;10.10;4.85;;;19.10;54.90;;;;;;5029818;28;20072;-59
2022/05/06 16:31:02;;;;;;;7.70;4.40;;;18.90;55.50;;;;;;5037396;28;20031;-60
2022/05/06 16:33:28;;;;;;;12.35;4.75;;;19.00;55.40;;;;;;5042349;28;20396;-59
2022/05/06 16:38:45;;;;;;;16.05;5.05;;;19.20;55.10;;;;;;5033587;28;20092;-63
2022/05/06 16:41:12;;;;;;;9.30;4.35;;;18.90;55.40;;;;;;5038703;28;20499;-60
2022/05/06 16:43:38;;;;;;;12.43;5.47;;;18.40;56.20;;;;;;5040333;28;20175;-61
2022/05/06 16:46:03;;;;;;;10.98;5.43;;;18.30;56.60;;;;;;5035784;28;20053;-60
2022/05/06 16:48:29;;;;;;;16.10;5.43;;;17.80;57.90;;;;;;5046775;28;20037;-59
2022/05/06 16:50:55;;;;;;;18.67;6.10;;;17.40;59.30;;;;;;5036018;28;20017;-60
2022/05/06 16:53:21;;;;;;;12.48;4.93;;;17.20;60.60;;;;;;5044870;28;20066;-60
2022/05/06 16:55:46;;;;;;;11.13;4.47;;;17.30;61.60;;;;;;5040039;28;20935;-59
2022/05/06 16:58:12;;;;;;;14.05;4.93;;;17.30;62.40;;;;;;5036827;28;20054;-59
2022/05/06 17:00:38;;;;;;;11.38;4.93;;;17.10;61.80;;;;;;5040049;28;20160;-60
2022/05/06 17:03:04;;;;;;;13.35;5.50;;;16.70;63.60;;;;;;5029888;28;20022;-58
2022/05/06 17:05:30;;;;;;;15.10;5.25;;;16.60;65.80;;;;;;5040283;28;20029;-59
2022/05/06 17:07:56;;;;;;;15.55;5.53;;;16.70;65.50;;;;;;5039143;28;20039;-58
2022/05/06 17:10:23;;;;;;;10.43;4.57;;;16.70;65.00;;;;;;5039254;28;20112;-60
2022/05/06 17:12:49;;;;;;;12.82;5.07;;;16.70;65.20;;;;;;5031159;28;20078;-59
2022/05/06 17:15:18;;;;;;;14.88;5.85;;;16.60;65.10;;;;;;5039296;28;20366;-59
2022/05/06 17:17:46;;;;;;;20.70;7.95;;;16.70;65.20;;;;;;5039376;28;20072;-59
2022/05/06 17:20:13;;;;;;;13.73;4.80;;;16.70;65.10;;;;;;5046041;28;20043;-59
2022/05/06 17:22:44;;;;;;;17.02;5.45;;;16.60;65.60;;;;;;5039969;28;20029;-59
2022/05/06 17:25:11;;;;;;;15.23;4.93;;;16.50;65.40;;;;;;5048527;28;20055;-59
2022/05/06 17:27:38;;;;;;;11.98;5.25;;;16.50;66.10;;;;;;5038563;28;20055;-59
2022/05/06 17:30:05;;;;;;;13.05;4.63;;;16.40;66.10;;;;;;5045184;28;20809;-59
2022/05/06 17:32:31;;;;;;;17.17;5.13;;;16.50;65.70;;;;;;5048941;28;20158;-59
2022/05/06 17:34:57;;;;;;;9.70;4.85;;;16.20;66.90;;;;;;5042998;28;20032;-58
2022/05/06 17:37:23;;;;;;;17.10;4.82;;;16.10;68.00;;;;;;5049395;28;20106;-59
2022/05/06 17:39:49;;;;;;;13.88;5.65;;;16.00;68.50;;;;;;5046380;28;20053;-58
2022/05/06 17:42:15;;;;;;;11.10;5.22;;;15.90;69.50;;;;;;5050052;28;20401;-59
2022/05/06 17:44:40;;;;;;;11.98;5.05;;;15.70;70.10;;;;;;5029039;28;20033;-59
2022/05/06 17:47:06;;;;;;;10.75;4.68;;;15.80;70.70;;;;;;5033251;28;20036;-57
2022/05/06 17:49:33;;;;;;;12.75;4.85;;;15.80;71.00;;;;;;5036421;28;20037;-59
2022/05/06 17:51:59;;;;;;;10.38;5.00;;;15.60;72.30;;;;;;5031006;28;20512;-59
2022/05/06 17:54:25;;;;;;;11.43;4.80;;;15.50;72.20;;;;;;5029887;28;20025;-58
2022/05/06 17:56:51;;;;;;;21.77;6.03;;;15.50;72.70;;;;;;5033131;28;20036;-59
2022/05/06 17:59:16;;;;;;;22.80;5.97;;;15.60;73.20;;;;;;5042710;28;20036;-58
2022/05/06 18:01:43;;;;;;;17.38;4.93;;;15.50;73.90;;;;;;5042271;28;20029;-58
2022/05/06 18:04:08;;;;;;;24.73;6.40;;;15.30;74.90;;;;;;5043566;28;20036;-60
2022/05/06 18:06:34;;;;;;;15.43;5.55;;;15.10;76.20;;;;;;5034004;28;20105;-59
2022/05/06 18:09:00;;;;;;;14.10;5.60;;;15.00;76.80;;;;;;5035692;28;20084;-59
2022/05/06 18:11:28;;;;;;;11.90;6.40;;;15.00;77.90;;;;;;5037167;28;20514;-59
2022/05/06 18:13:54;;;;;;;11.68;4.68;;;14.90;77.80;;;;;;5039097;28;20117;-59
2022/05/06 18:16:24;;;;;;;14.68;4.65;;;14.80;78.10;;;;;;5050184;28;20084;-59
2022/05/06 18:18:50;;;;;;;17.35;6.07;;;14.80;78.70;;;;;;5041938;28;20053;-58
2022/05/06 18:21:18;;;;;;;16.92;6.40;;;14.80;78.80;;;;;;5047405;28;20532;-60
2022/05/06 18:23:44;;;;;;;14.13;5.20;;;14.80;78.90;;;;;;5038860;28;20029;-58
2022/05/06 18:26:10;;;;;;;17.52;4.82;;;14.80;78.90;;;;;;5046961;28;20372;-59
2022/05/06 18:28:40;;;;;;;15.23;4.97;;;14.80;79.10;;;;;;5030275;28;20454;-59
2022/05/06 18:31:06;;;;;;;9.93;4.78;;;14.70;79.50;;;;;;5049187;28;20025;-58
2022/05/06 18:33:32;;;;;;;14.02;5.57;;;14.70;79.90;;;;;;5042665;28;20044;-59
2022/05/06 18:36:00;;;;;;;17.40;6.13;;;14.70;80.00;;;;;;5050239;28;20475;-58
2022/05/06 18:38:28;;;;;;;14.30;5.55;;;14.70;80.20;;;;;;5047998;28;20429;-58
2022/05/06 18:40:55;;;;;;;21.33;6.05;;;14.80;79.90;;;;;;5022386;28;20072;-59
2022/05/06 18:43:21;;;;;;;15.73;5.55;;;14.70;80.10;;;;;;5040622;28;20060;-58
2022/05/06 18:45:47;;;;;;;20.65;6.00;;;14.70;80.30;;;;;;5039312;28;20029;-59
2022/05/06 18:48:15;;;;;;;14.65;5.32;;;14.80;80.20;;;;;;5033571;28;20140;-60
2022/05/06 18:50:43;;;;;;;13.95;7.00;;;14.80;80.50;;;;;;5035921;28;20029;-69
2022/05/06 18:53:10;;;;;;;11.25;5.63;;;14.80;80.40;;;;;;5029506;28;20033;-59
2022/05/06 18:55:36;;;;;;;16.08;5.28;;;14.70;80.80;;;;;;5040796;28;20029;-58
2022/05/06 18:58:06;;;;;;;16.92;5.13;;;14.70;81.00;;;;;;5046848;28;20032;-60
2022/05/06 19:00:32;;;;;;;16.17;6.82;;;14.80;81.00;;;;;;5047120;28;20045;-60
2022/05/06 19:02:57;;;;;;;14.20;4.70;;;14.80;81.30;;;;;;5034638;28;20021;-60
2022/05/06 19:05:27;;;;;;;14.77;5.88;;;14.80;81.10;;;;;;5025712;28;20032;-58
2022/05/06 19:07:53;;;;;;;16.17;5.63;;;14.80;81.10;;;;;;5023239;28;20128;-59
2022/05/06 19:10:20;;;;;;;21.48;6.13;;;14.80;81.40;;;;;;5042938;28;20036;-58
2022/05/06 19:12:46;;;;;;;14.70;5.05;;;14.70;81.70;;;;;;5035331;28;20432;-59
2022/05/06 19:15:12;;;;;;;20.00;6.45;;;14.60;82.50;;;;;;5047619;28;20413;-59
2022/05/06 19:17:38;;;;;;;15.65;5.72;;;14.60;82.90;;;;;;5037089;28;20053;-59
2022/05/06 19:20:09;;;;;;;12.57;5.43;;;14.60;83.30;;;;;;5028622;28;20505;-58
2022/05/06 19:25:19;;;;;;;11.30;5.68;;;14.50;83.40;;;;;;5030992;28;20103;-59
2022/05/06 19:27:44;;;;;;;12.90;4.40;;;14.50;83.50;;;;;;5030807;28;20049;-60
2022/05/06 19:30:11;;;;;;;21.08;5.85;;;14.50;83.50;;;;;;5043789;28;20033;-60
2022/05/06 19:32:36;;;;;;;14.80;6.03;;;14.50;83.50;;;;;;5030228;28;20033;-61
2022/05/06 19:35:03;;;;;;;11.45;5.25;;;14.40;84.00;;;;;;5029932;28;20187;-61
2022/05/06 19:37:29;;;;;;;14.38;5.18;;;14.40;84.20;;;;;;5036817;28;20052;-61
2022/05/06 19:39:55;;;;;;;9.48;5.38;;;14.40;84.30;;;;;;5030739;28;20033;-60
2022/05/06 19:42:21;;;;;;;14.48;4.82;;;14.30;84.20;;;;;;5025417;28;20044;-60
2022/05/06 19:44:47;;;;;;;19.15;5.95;;;14.40;84.50;;;;;;5026471;28;20029;-60
2022/05/06 19:47:14;;;;;;;13.30;5.78;;;14.30;84.50;;;;;;5038300;28;20036;-60
2022/05/06 19:49:40;;;;;;;15.05;5.88;;;14.30;84.70;;;;;;5033395;28;20033;-61
2022/05/06 19:54:51;;;;;;;15.52;5.22;;;14.30;85.30;;;;;;5035900;28;20431;-59
2022/05/06 19:57:17;;;;;;;11.68;5.93;;;14.30;85.10;;;;;;5029801;28;20048;-63
2022/05/06 19:59:43;;;;;;;13.63;5.88;;;14.20;85.40;;;;;;5030804;28;20037;-61
2022/05/06 20:02:09;;;;;;;13.57;5.45;;;14.30;85.40;;;;;;5033569;28;20099;-59
2022/05/06 20:04:34;;;;;;;19.77;5.78;;;14.20;85.30;;;;;;5034164;28;20030;-60
2022/05/06 20:07:00;;;;;;;14.95;6.30;;;14.20;85.40;;;;;;5029224;28;20469;-61
2022/05/06 20:09:26;;;;;;;14.25;6.55;;;14.20;85.60;;;;;;5035186;28;20404;-61
2022/05/06 20:11:52;;;;;;;13.80;5.85;;;14.20;85.70;;;;;;5035393;28;20034;-61
2022/05/06 20:14:17;;;;;;;18.48;6.10;;;14.20;85.60;;;;;;5035393;28;20468;-60
2022/05/06 20:16:43;;;;;;;19.92;5.50;;;14.30;84.50;;;;;;5029822;28;20374;-60
2022/05/06 20:19:09;;;;;;;13.07;5.75;;;14.40;84.70;;;;;;5026291;28;20033;-60
2022/05/06 20:21:37;;;;;;;14.63;6.10;;;14.40;84.70;;;;;;5034609;28;20037;-57
2022/05/06 20:24:03;;;;;;;7.88;4.97;;;14.40;84.50;;;;;;5033528;28;20030;-60
2022/05/06 20:26:29;;;;;;;5.82;2.55;;;14.40;83.50;;;;;;5044191;28;20067;-60
2022/05/06 20:28:55;;;;;;;5.13;2.95;;;14.50;82.30;;;;;;5033300;28;20175;-59
2022/05/06 20:31:21;;;;;;;5.43;2.38;;;14.70;80.70;;;;;;5032407;28;20029;-58
2022/05/06 20:33:48;;;;;;;4.45;2.30;;;14.90;78.50;;;;;;5025607;28;20043;-58
2022/05/06 20:36:16;;;;;;;5.28;2.10;;;15.00;77.70;;;;;;5031441;28;20362;-61
2022/05/06 20:38:45;;;;;;;5.72;1.98;;;15.10;77.50;;;;;;5034640;28;20040;-60
2022/05/06 20:41:11;;;;;;;4.63;1.85;;;15.20;78.50;;;;;;5046358;28;20092;-60
2022/05/06 20:43:37;;;;;;;4.78;2.30;;;15.20;76.80;;;;;;5037684;28;20041;-59
2022/05/06 20:46:03;;;;;;;3.92;2.20;;;15.10;77.60;;;;;;5028623;28;20018;-59
2022/05/06 20:48:29;;;;;;;6.97;2.40;;;15.10;77.00;;;;;;5037359;28;20041;-59